Time;durP1;ratioP1;P1;durP2;ratioP2;P2;SDS_P1;SDS_P2;PMS_P1;PMS_P2;Temp;Humidity;BMP_temperature;BMP_pressure;BME280_temperature;BME280_humidity;BME280_pressure;Samples;Min_cycle;Max_cycle;Signal;HPM_P1;HPM_P2
2022/08/25 00:01:48;;;;;;;5.97;3.47;;;20.00;1.00;;;;;;5028988;28;20869;-72
2022/08/25 00:04:15;;;;;;;4.70;3.30;;;20.00;1.00;;;;;;5026186;28;20511;-72
2022/08/25 00:06:42;;;;;;;4.00;3.13;;;20.00;1.00;;;;;;5027460;28;20767;-71
2022/08/25 00:09:10;;;;;;;4.30;3.30;;;19.90;1.00;;;;;;5023380;28;20749;-72
2022/08/25 00:11:38;;;;;;;7.27;3.50;;;19.90;1.00;;;;;;5022976;28;21042;-72
2022/08/25 00:14:15;;;;;;;8.07;3.20;;;19.90;1.00;;;;;;5025508;28;20892;-72
2022/08/25 00:16:42;;;;;;;3.37;3.10;;;19.80;1.00;;;;;;5027656;28;20518;-72
2022/08/25 00:19:11;;;;;;;4.10;3.50;;;19.80;1.00;;;;;;5020140;28;20433;-72
2022/08/25 00:21:39;;;;;;;9.80;3.53;;;19.80;1.00;;;;;;5026720;28;20446;-72
2022/08/25 00:24:07;;;;;;;6.40;2.93;;;19.80;1.00;;;;;;5033073;28;20826;-71
2022/08/25 00:26:33;;;;;;;8.00;4.07;;;19.70;1.00;;;;;;5019972;28;20889;-72
2022/08/25 00:28:59;;;;;;;3.90;3.50;;;19.70;1.00;;;;;;5034163;28;20402;-72
2022/08/25 00:31:25;;;;;;;9.53;4.00;;;19.70;1.00;;;;;;5025422;28;20437;-71
2022/08/25 00:33:51;;;;;;;5.23;3.87;;;19.60;1.00;;;;;;5019220;28;20172;-72
2022/08/25 00:36:18;;;;;;;8.50;4.40;;;19.60;1.00;;;;;;5027787;28;20447;-72
2022/08/25 00:38:45;;;;;;;4.90;3.77;;;19.60;1.00;;;;;;5022330;28;20442;-72
2022/08/25 00:41:18;;;;;;;5.03;3.80;;;19.60;1.00;;;;;;5015852;28;20450;-72
2022/08/25 00:43:51;;;;;;;4.93;3.77;;;19.60;1.00;;;;;;5030706;28;20416;-72
2022/08/25 00:46:27;;;;;;;4.57;3.77;;;19.50;1.00;;;;;;5033310;28;20406;-72
2022/08/25 00:48:58;;;;;;;9.73;3.83;;;19.50;1.00;;;;;;5031377;28;20437;-72
2022/08/25 00:51:41;;;;;;;4.13;3.47;;;19.50;1.00;;;;;;5018379;28;20463;-72
2022/08/25 00:54:13;;;;;;;4.30;3.53;;;19.40;1.00;;;;;;5028074;28;20762;-76
2022/08/25 00:57:14;;;;;;;6.00;4.67;;;19.40;1.00;;;;;;5020071;28;21064;-76
2022/08/25 00:59:43;;;;;;;4.50;4.10;;;19.40;1.00;;;;;;5021679;28;20430;-76
2022/08/25 01:02:37;;;;;;;6.17;4.80;;;19.40;1.00;;;;;;5028388;28;20390;-76
2022/08/25 01:05:04;;;;;;;6.00;3.93;;;19.30;1.00;;;;;;5026961;28;20439;-76
2022/08/25 01:07:43;;;;;;;6.90;4.57;;;19.30;1.00;;;;;;5023329;28;20422;-76
2022/08/25 01:10:27;;;;;;;6.87;4.37;;;19.30;1.00;;;;;;5020543;28;20772;-76
2022/08/25 01:12:57;;;;;;;8.50;3.93;;;19.20;1.00;;;;;;5021005;28;20453;-76
2022/08/25 01:15:23;;;;;;;6.43;4.30;;;19.20;1.00;;;;;;5025420;28;20431;-76
2022/08/25 01:18:01;;;;;;;14.20;4.30;;;19.20;1.00;;;;;;5022898;28;20481;-76
2022/08/25 01:20:33;;;;;;;5.40;3.70;;;19.20;1.00;;;;;;5030707;28;20450;-76
2022/08/25 01:23:07;;;;;;;8.10;4.13;;;19.10;1.00;;;;;;5020340;28;20538;-76
2022/08/25 01:25:50;;;;;;;4.90;4.17;;;19.10;1.00;;;;;;5033437;28;20951;-76
2022/08/25 01:28:16;;;;;;;6.70;4.00;;;19.10;1.00;;;;;;5014361;28;20530;-76
2022/08/25 01:30:42;;;;;;;12.03;4.27;;;19.10;1.00;;;;;;5018341;28;20430;-76
2022/08/25 01:33:31;;;;;;;5.80;3.83;;;19.10;1.00;;;;;;5020844;28;20488;-76
2022/08/25 01:36:07;;;;;;;7.47;4.03;;;19.00;1.00;;;;;;5016940;28;20203;-76
2022/08/25 01:38:33;;;;;;;4.80;4.17;;;19.00;1.00;;;;;;5024480;28;20436;-72
2022/08/25 01:40:59;;;;;;;7.27;4.37;;;19.00;1.00;;;;;;5036023;28;20897;-72
2022/08/25 01:43:34;;;;;;;10.10;4.20;;;18.90;1.00;;;;;;5039538;28;20509;-72
2022/08/25 01:46:00;;;;;;;14.63;4.60;;;18.90;1.00;;;;;;5037065;28;20193;-72
2022/08/25 01:48:25;;;;;;;10.13;4.90;;;18.90;1.00;;;;;;5031326;28;20500;-72
2022/08/25 01:50:51;;;;;;;10.63;4.30;;;18.90;1.00;;;;;;5038034;28;20232;-72
2022/08/25 01:53:28;;;;;;;6.00;4.77;;;18.90;1.00;;;;;;5028335;28;20198;-72
2022/08/25 01:56:00;;;;;;;6.57;4.57;;;18.80;1.00;;;;;;5027219;28;20681;-72
2022/08/25 01:58:33;;;;;;;10.30;4.53;;;18.90;1.00;;;;;;5027454;28;20431;-72
2022/08/25 02:01:01;;;;;;;5.70;5.03;;;18.80;1.00;;;;;;5031452;28;20430;-72
2022/08/25 02:03:28;;;;;;;8.90;4.33;;;18.80;1.00;;;;;;5021139;28;20437;-72
2022/08/25 02:05:55;;;;;;;5.90;4.30;;;18.80;1.00;;;;;;5029011;28;20463;-72
2022/08/25 02:08:22;;;;;;;8.43;4.73;;;18.80;1.00;;;;;;5023577;28;20437;-72
2022/08/25 02:10:51;;;;;;;6.23;4.40;;;18.80;1.00;;;;;;5028957;28;20432;-72
2022/08/25 02:13:17;;;;;;;8.90;4.87;;;18.80;1.00;;;;;;5032835;28;20449;-72
2022/08/25 02:15:47;;;;;;;6.20;4.23;;;18.70;1.00;;;;;;5039983;28;20410;-72
2022/08/25 02:18:19;;;;;;;6.63;4.33;;;18.70;1.00;;;;;;5031700;28;20867;-72
2022/08/25 02:20:50;;;;;;;12.93;4.70;;;18.70;1.00;;;;;;5033846;28;20470;-72
2022/08/25 02:23:16;;;;;;;12.17;4.67;;;18.70;1.00;;;;;;5025433;28;20433;-72
2022/08/25 02:26:19;;;;;;;9.50;4.70;;;18.60;1.00;;;;;;5020730;28;20368;-76
2022/08/25 02:28:46;;;;;;;10.83;4.30;;;18.60;1.00;;;;;;5028456;28;20930;-76
2022/08/25 02:31:13;;;;;;;9.80;4.40;;;18.60;1.00;;;;;;5027692;28;20454;-77
2022/08/25 02:33:43;;;;;;;8.00;5.00;;;18.60;1.00;;;;;;5019625;28;20430;-76
2022/08/25 02:36:14;;;;;;;6.27;4.63;;;18.50;1.00;;;;;;5033088;28;20417;-76
2022/08/25 02:38:58;;;;;;;8.60;4.40;;;18.50;1.00;;;;;;5020222;28;20430;-77
2022/08/25 02:41:25;;;;;;;7.03;4.27;;;18.50;1.00;;;;;;5022136;28;20462;-72
2022/08/25 02:43:51;;;;;;;8.83;6.00;;;18.50;1.00;;;;;;5023802;28;20442;-72
2022/08/25 02:46:19;;;;;;;11.73;7.00;;;18.50;1.00;;;;;;5026025;28;20440;-72
2022/08/25 02:48:45;;;;;;;9.70;5.60;;;18.50;1.00;;;;;;5028707;28;20182;-72
2022/08/25 02:51:12;;;;;;;8.67;5.07;;;18.40;1.00;;;;;;5031109;28;20386;-72
2022/08/25 02:53:39;;;;;;;16.87;5.77;;;18.40;1.00;;;;;;5017670;28;20438;-72
2022/08/25 02:56:09;;;;;;;6.90;4.90;;;18.40;1.00;;;;;;5024826;28;20409;-72
2022/08/25 02:58:37;;;;;;;8.00;5.10;;;18.40;1.00;;;;;;5025633;28;20445;-72
2022/08/25 03:01:03;;;;;;;7.00;4.90;;;18.40;1.00;;;;;;5028157;28;20496;-72
2022/08/25 03:03:29;;;;;;;10.40;5.00;;;18.40;1.00;;;;;;5030043;28;20447;-72
2022/08/25 03:05:56;;;;;;;7.53;4.53;;;18.30;1.00;;;;;;5027838;28;20393;-72
2022/08/25 03:08:26;;;;;;;5.10;4.30;;;18.40;1.00;;;;;;5019914;28;20184;-72
2022/08/25 03:10:51;;;;;;;6.77;4.30;;;18.30;1.00;;;;;;5034310;28;20921;-72
2022/08/25 03:13:17;;;;;;;8.47;4.80;;;18.30;1.00;;;;;;5020275;28;20469;-72
2022/08/25 03:15:44;;;;;;;10.63;5.20;;;18.30;1.00;;;;;;5016264;28;20175;-72
2022/08/25 03:18:10;;;;;;;6.87;4.20;;;18.30;1.00;;;;;;5019284;28;20180;-72
2022/08/25 03:20:38;;;;;;;10.90;4.87;;;18.30;1.00;;;;;;5025342;28;20505;-72
2022/08/25 03:23:05;;;;;;;7.63;4.47;;;18.30;1.00;;;;;;5019298;28;20851;-72
2022/08/25 03:28:32;;;;;;;5.30;4.40;;;18.30;1.00;;;;;;5014024;28;20442;-77
2022/08/25 03:31:08;;;;;;;4.83;4.20;;;18.30;1.00;;;;;;5027137;28;20451;-77
2022/08/25 03:33:37;;;;;;;7.90;5.33;;;18.30;1.00;;;;;;5033429;28;20469;-77
2022/08/25 03:36:07;;;;;;;6.70;4.30;;;18.30;1.00;;;;;;5003199;28;20791;-77
2022/08/25 03:38:38;;;;;;;5.20;4.70;;;18.30;1.00;;;;;;5023453;28;20822;-77
2022/08/25 03:41:21;;;;;;;7.03;4.87;;;18.30;1.00;;;;;;5029654;28;20426;-72
2022/08/25 03:43:48;;;;;;;18.47;5.10;;;18.30;1.00;;;;;;5032786;28;20985;-72
2022/08/25 03:46:22;;;;;;;7.70;5.20;;;18.30;1.00;;;;;;5032575;28;20907;-72
2022/08/25 03:48:49;;;;;;;11.23;5.00;;;18.30;1.00;;;;;;5033138;28;20816;-72
2022/08/25 03:51:27;;;;;;;7.93;4.90;;;18.30;1.00;;;;;;5031772;28;20446;-72
2022/08/25 03:53:53;;;;;;;9.70;5.00;;;18.30;1.00;;;;;;5029777;28;20468;-72
2022/08/25 03:56:26;;;;;;;8.90;5.70;;;18.30;1.00;;;;;;5027594;28;20434;-78
2022/08/25 03:59:02;;;;;;;9.33;5.50;;;18.30;1.00;;;;;;5032787;28;20437;-76
2022/08/25 04:01:31;;;;;;;8.43;5.20;;;18.30;1.00;;;;;;5031928;28;20466;-77
2022/08/25 04:04:02;;;;;;;8.53;4.97;;;18.20;1.00;;;;;;5032537;28;20433;-77
2022/08/25 04:06:49;;;;;;;9.00;5.33;;;18.20;1.00;;;;;;5034030;28;20441;-78
2022/08/25 04:09:19;;;;;;;9.43;4.90;;;18.20;1.00;;;;;;5023808;28;20432;-79
2022/08/25 04:11:45;;;;;;;5.83;4.80;;;18.20;1.00;;;;;;5027866;28;20457;-78
2022/08/25 04:14:12;;;;;;;11.70;5.47;;;18.20;1.00;;;;;;5030305;28;20430;-79
2022/08/25 04:16:44;;;;;;;8.33;5.37;;;18.20;1.00;;;;;;5031778;28;20416;-79
2022/08/25 04:19:31;;;;;;;10.57;5.07;;;18.10;1.00;;;;;;5022194;28;20937;-79
2022/08/25 04:22:07;;;;;;;10.27;5.70;;;18.10;1.00;;;;;;5021541;28;20435;-79
2022/08/25 04:24:37;;;;;;;17.90;6.13;;;18.10;1.00;;;;;;5033665;28;20433;-78
2022/08/25 04:27:31;;;;;;;16.83;5.17;;;18.10;1.00;;;;;;5034579;28;20469;-80
2022/08/25 04:29:56;;;;;;;6.77;4.40;;;18.10;1.00;;;;;;5027470;28;20500;-80
2022/08/25 04:32:31;;;;;;;10.80;6.10;;;18.10;1.00;;;;;;5029941;28;20461;-80
2022/08/25 04:35:49;;;;;;;11.10;5.80;;;18.10;1.00;;;;;;5022260;28;20574;-80
2022/08/25 04:38:26;;;;;;;10.17;5.63;;;18.10;1.00;;;;;;5022691;28;20413;-80
2022/08/25 04:40:57;;;;;;;17.27;5.17;;;18.00;1.00;;;;;;5022081;28;20407;-79
2022/08/25 04:43:33;;;;;;;21.33;6.00;;;18.10;1.00;;;;;;5037219;28;20436;-79
2022/08/25 04:46:06;;;;;;;12.77;5.70;;;18.10;1.00;;;;;;5019032;28;20426;-80
2022/08/25 04:49:02;;;;;;;12.03;6.17;;;18.10;1.00;;;;;;5018473;28;20460;-79
2022/08/25 04:52:01;;;;;;;17.93;5.73;;;18.10;1.00;;;;;;5022312;28;20452;-79
2022/08/25 04:54:27;;;;;;;20.40;6.37;;;18.10;1.00;;;;;;5023594;28;20434;-79
2022/08/25 04:57:31;;;;;;;26.03;6.90;;;18.10;1.00;;;;;;5024127;28;20402;-79
2022/08/25 04:59:57;;;;;;;15.03;6.37;;;18.20;1.00;;;;;;5026188;28;20485;-79
2022/08/25 05:02:31;;;;;;;10.30;5.10;;;18.20;1.00;;;;;;5030363;28;20459;-79
2022/08/25 05:05:02;;;;;;;11.77;5.87;;;18.30;1.00;;;;;;5020414;28;20231;-79
2022/08/25 05:07:37;;;;;;;11.40;6.30;;;18.30;1.00;;;;;;5024499;28;20481;-79
2022/08/25 05:10:25;;;;;;;15.73;6.47;;;18.30;1.00;;;;;;5015812;28;20523;-79
2022/08/25 05:12:51;;;;;;;15.50;6.70;;;18.30;1.00;;;;;;5032286;28;20463;-78
2022/08/25 05:18:24;;;;;;;24.33;6.43;;;18.40;1.00;;;;;;5048198;28;20441;-78
2022/08/25 05:20:59;;;;;;;14.60;5.60;;;18.40;1.00;;;;;;5039900;28;20418;-78
2022/08/25 05:23:32;;;;;;;18.70;6.00;;;18.50;1.00;;;;;;5049955;28;20540;-78
2022/08/25 05:26:06;;;;;;;22.13;5.87;;;18.50;1.00;;;;;;5051993;28;20516;-75
2022/08/25 05:28:40;;;;;;;18.03;6.83;;;18.60;1.00;;;;;;5043375;28;20559;-75
2022/08/25 05:31:31;;;;;;;17.13;6.00;;;18.70;1.00;;;;;;5046821;28;20470;-75
2022/08/25 05:34:05;;;;;;;30.67;7.17;;;18.70;1.00;;;;;;5045456;28;21206;-75
2022/08/25 05:36:32;;;;;;;22.33;7.30;;;18.80;1.00;;;;;;5036723;28;20440;-75
2022/08/25 05:39:02;;;;;;;14.93;6.87;;;18.90;1.00;;;;;;5051014;28;20431;-75
2022/08/25 05:41:43;;;;;;;14.80;6.70;;;19.00;1.00;;;;;;5045339;28;20427;-79
2022/08/25 05:44:14;;;;;;;21.40;6.80;;;19.00;1.00;;;;;;5047716;28;20411;-78
2022/08/25 05:46:50;;;;;;;19.80;6.03;;;19.10;1.00;;;;;;5051079;28;20428;-78
2022/08/25 05:49:16;;;;;;;22.80;6.70;;;19.20;1.00;;;;;;5051983;28;20438;-78
2022/08/25 05:51:41;;;;;;;31.17;7.20;;;19.30;1.00;;;;;;5042780;28;20560;-78
2022/08/25 05:54:07;;;;;;;35.30;7.50;;;19.40;1.00;;;;;;5045243;28;20533;-78
2022/08/25 05:56:37;;;;;;;36.90;9.53;;;19.50;1.00;;;;;;5022608;28;20190;-75
2022/08/25 05:59:03;;;;;;;40.10;8.17;;;19.60;1.00;;;;;;5022511;28;20405;-75
2022/08/25 06:04:16;;;;;;;54.30;10.27;;;19.80;1.00;;;;;;5026642;28;20461;-75
2022/08/25 06:06:42;;;;;;;38.67;9.43;;;19.90;1.00;;;;;;5020278;28;20409;-74
2022/08/25 06:09:09;;;;;;;57.40;10.83;;;20.00;1.00;;;;;;5031243;28;20414;-75
2022/08/25 06:12:07;;;;;;;29.23;11.83;;;20.10;1.00;;;;;;5020640;28;20415;-78
2022/08/25 06:14:34;;;;;;;32.43;9.33;;;20.30;1.00;;;;;;5029163;28;20502;-78
2022/08/25 06:17:01;;;;;;;33.70;9.50;;;20.40;1.00;;;;;;5021652;28;20489;-78
2022/08/25 06:19:31;;;;;;;18.23;8.00;;;20.50;1.00;;;;;;5023645;28;20402;-78
2022/08/25 06:22:02;;;;;;;16.87;7.47;;;20.60;1.00;;;;;;5020045;28;20539;-78
2022/08/25 06:24:32;;;;;;;14.10;7.70;;;20.80;1.00;;;;;;5034298;28;20756;-78
2022/08/25 06:26:58;;;;;;;9.93;7.80;;;20.90;1.00;;;;;;5020590;28;20431;-75
2022/08/25 06:29:25;;;;;;;12.30;8.13;;;21.10;1.00;;;;;;5022923;28;20453;-75
2022/08/25 06:32:01;;;;;;;13.50;8.40;;;21.20;1.00;;;;;;5023129;28;20814;-81
2022/08/25 06:34:31;;;;;;;11.40;8.33;;;21.30;1.00;;;;;;5019969;28;20447;-81
2022/08/25 06:37:01;;;;;;;15.97;8.90;;;21.50;1.00;;;;;;5020546;28;20468;-81
2022/08/25 06:39:31;;;;;;;12.77;8.50;;;21.60;1.00;;;;;;5016902;28;20489;-82
2022/08/25 06:41:57;;;;;;;18.00;8.70;;;21.70;1.00;;;;;;5019067;28;20440;-82
2022/08/25 06:44:37;;;;;;;10.97;8.43;;;21.80;1.00;;;;;;5023272;28;20424;-76
2022/08/25 06:47:03;;;;;;;13.53;7.60;;;22.00;1.00;;;;;;5030867;28;20186;-76
2022/08/25 06:49:29;;;;;;;11.87;8.57;;;22.10;1.00;;;;;;5034968;28;20438;-76
2022/08/25 06:52:02;;;;;;;15.67;8.03;;;22.30;1.00;;;;;;5034903;28;20687;-77
2022/08/25 06:54:31;;;;;;;11.73;8.10;;;22.40;1.00;;;;;;5033792;28;20179;-76
2022/08/25 06:57:03;;;;;;;10.83;7.87;;;22.50;1.00;;;;;;5032129;28;20428;-78
2022/08/25 06:59:32;;;;;;;11.00;8.10;;;22.50;1.00;;;;;;5027060;28;20408;-79
2022/08/25 07:02:03;;;;;;;10.50;7.97;;;22.70;1.00;;;;;;5032740;28;20433;-79
2022/08/25 07:04:33;;;;;;;13.20;8.57;;;22.80;1.00;;;;;;5033728;28;20460;-79
2022/08/25 07:07:20;;;;;;;11.07;7.90;;;22.90;1.00;;;;;;5030732;28;20434;-79
2022/08/25 07:09:49;;;;;;;12.30;8.50;;;23.10;1.00;;;;;;5022517;28;20482;-79
2022/08/25 07:12:31;;;;;;;13.73;7.87;;;23.20;1.00;;;;;;5019793;28;20422;-79
2022/08/25 07:15:01;;;;;;;18.03;8.50;;;23.30;1.00;;;;;;5033076;28;20972;-79
2022/08/25 07:17:31;;;;;;;10.90;9.00;;;23.40;1.00;;;;;;5031936;28;20475;-79
2022/08/25 07:20:01;;;;;;;19.03;8.47;;;23.50;1.00;;;;;;5033805;28;20419;-79
2022/08/25 07:22:32;;;;;;;11.60;8.37;;;23.60;1.00;;;;;;5032135;28;20773;-78
2022/08/25 07:25:02;;;;;;;14.07;8.27;;;23.70;1.00;;;;;;5029971;28;20430;-79
2022/08/25 07:27:28;;;;;;;12.73;8.20;;;23.80;1.00;;;;;;5029400;28;20427;-79
2022/08/25 07:29:53;;;;;;;12.10;8.07;;;24.00;1.00;;;;;;5028518;28;20460;-79
2022/08/25 07:32:31;;;;;;;10.20;8.30;;;24.20;1.00;;;;;;5025444;28;20295;-79
2022/08/25 07:35:17;;;;;;;11.60;8.50;;;24.20;1.00;;;;;;5032039;28;20755;-79
2022/08/25 07:37:52;;;;;;;11.60;8.03;;;24.40;1.00;;;;;;5021092;28;20579;-79
2022/08/25 07:40:28;;;;;;;11.10;8.27;;;24.50;1.00;;;;;;5020188;28;20417;-79
2022/08/25 07:43:07;;;;;;;21.37;8.17;;;24.60;1.00;;;;;;5028145;28;20430;-79
2022/08/25 07:45:36;;;;;;;12.77;8.60;;;24.70;1.00;;;;;;5027369;28;20457;-79
2022/08/25 07:48:19;;;;;;;10.27;8.10;;;24.80;1.00;;;;;;5026730;28;20492;-79
2022/08/25 07:51:14;;;;;;;14.30;8.37;;;24.90;1.00;;;;;;5022268;28;20858;-79
2022/08/25 07:53:50;;;;;;;9.70;7.63;;;24.90;1.00;;;;;;5030178;28;20459;-79
2022/08/25 07:57:03;;;;;;;9.70;7.60;;;25.10;1.00;;;;;;5021992;28;20435;-79
2022/08/25 07:59:31;;;;;;;12.53;8.33;;;25.20;1.00;;;;;;5015561;28;20407;-80
2022/08/25 08:02:01;;;;;;;13.60;7.77;;;25.30;1.00;;;;;;5031448;28;20505;-80
2022/08/25 08:04:27;;;;;;;9.30;7.80;;;25.40;1.00;;;;;;5025054;28;20449;-80
2022/08/25 08:07:25;;;;;;;14.07;8.00;;;25.50;1.00;;;;;;5028352;28;20415;-80
2022/08/25 08:10:11;;;;;;;21.53;8.17;;;25.60;1.00;;;;;;5029228;28;20225;-80
2022/08/25 08:12:50;;;;;;;9.33;7.60;;;25.80;1.00;;;;;;5028696;28;20466;-79
2022/08/25 08:15:18;;;;;;;13.70;7.40;;;25.90;1.00;;;;;;5024884;28;20778;-76
2022/08/25 08:17:50;;;;;;;13.80;7.43;;;26.00;1.00;;;;;;5034791;28;20440;-76
2022/08/25 08:20:19;;;;;;;15.30;7.73;;;26.10;1.00;;;;;;5015289;28;20391;-76
2022/08/25 08:22:45;;;;;;;12.97;7.30;;;26.10;1.00;;;;;;5028235;28;20425;-75
2022/08/25 08:25:11;;;;;;;12.57;7.77;;;26.20;1.00;;;;;;5028374;28;20425;-80
2022/08/25 08:27:38;;;;;;;10.07;6.43;;;26.40;1.00;;;;;;5033543;28;20658;-79
2022/08/25 08:30:49;;;;;;;11.17;6.80;;;26.50;1.00;;;;;;5026518;28;20967;-80
2022/08/25 08:33:33;;;;;;;13.73;6.80;;;26.60;1.00;;;;;;5031835;28;20473;-80
2022/08/25 08:36:14;;;;;;;10.60;7.20;;;26.70;1.00;;;;;;5027215;28;20457;-80
2022/08/25 08:38:49;;;;;;;12.73;6.80;;;26.80;1.00;;;;;;5021467;28;20464;-81
2022/08/25 08:44:46;;;;;;;11.67;7.83;;;27.00;1.00;;;;;;5023282;28;20410;-81
2022/08/25 08:47:19;;;;;;;8.70;6.50;;;27.10;1.00;;;;;;5024073;28;20506;-81
2022/08/25 08:50:23;;;;;;;11.43;6.70;;;27.30;1.00;;;;;;5031905;28;20923;-82
2022/08/25 08:53:07;;;;;;;9.53;6.27;;;27.40;1.00;;;;;;5019727;28;20952;-81
2022/08/25 08:55:49;;;;;;;15.73;7.20;;;27.50;1.00;;;;;;5015215;28;20774;-81
2022/08/25 08:58:20;;;;;;;7.03;6.33;;;27.60;1.00;;;;;;5023917;28;20506;-82
2022/08/25 09:01:09;;;;;;;7.10;5.80;;;27.60;1.00;;;;;;5019729;28;20429;-83
2022/08/25 09:03:45;;;;;;;6.27;5.67;;;27.70;1.00;;;;;;5039321;28;20488;-82
2022/08/25 09:06:19;;;;;;;6.30;5.70;;;27.70;1.00;;;;;;5025047;28;20428;-81
2022/08/25 09:09:25;;;;;;;10.80;5.90;;;27.90;1.00;;;;;;5021432;28;20469;-81
2022/08/25 09:12:15;;;;;;;7.43;6.47;;;28.00;1.00;;;;;;5020566;28;21352;-82
2022/08/25 09:14:50;;;;;;;7.07;5.83;;;28.10;1.00;;;;;;5022818;28;20460;-82
2022/08/25 09:17:37;;;;;;;6.20;5.53;;;28.20;1.00;;;;;;5010869;28;20800;-82
2022/08/25 09:20:08;;;;;;;8.70;5.80;;;28.30;1.00;;;;;;5013784;28;20431;-82
2022/08/25 09:23:00;;;;;;;6.57;5.97;;;28.40;1.00;;;;;;5007522;28;20477;-81
2022/08/25 09:25:37;;;;;;;6.83;5.87;;;28.50;1.00;;;;;;5007774;28;20422;-81
2022/08/25 09:28:13;;;;;;;8.13;5.63;;;28.60;1.00;;;;;;5007194;28;20934;-81
2022/08/25 09:30:57;;;;;;;7.10;6.00;;;28.80;1.00;;;;;;5020712;28;20464;-81
2022/08/25 09:33:25;;;;;;;8.30;5.73;;;28.90;1.00;;;;;;5026181;28;20461;-81
2022/08/25 09:35:53;;;;;;;7.60;5.67;;;28.90;1.00;;;;;;5013385;28;20422;-81
2022/08/25 09:38:19;;;;;;;7.60;5.77;;;29.00;1.00;;;;;;5020355;28;20433;-82
2022/08/25 09:40:53;;;;;;;8.70;5.97;;;29.10;1.00;;;;;;5031563;28;20531;-81
2022/08/25 09:43:29;;;;;;;10.13;6.23;;;29.20;1.00;;;;;;5025216;28;20540;-80
2022/08/25 09:45:57;;;;;;;7.40;5.90;;;29.30;1.00;;;;;;5025320;28;20438;-81
2022/08/25 09:48:42;;;;;;;7.33;6.10;;;29.40;1.00;;;;;;5031209;28;20977;-72
2022/08/25 09:51:23;;;;;;;9.93;6.30;;;29.50;1.00;;;;;;5015575;28;20435;-73
2022/08/25 09:54:17;;;;;;;11.30;6.70;;;29.80;1.00;;;;;;5022543;28;20976;-73
2022/08/25 09:56:55;;;;;;;9.80;5.70;;;29.80;1.00;;;;;;5023779;28;20799;-73
2022/08/25 09:59:28;;;;;;;7.70;6.87;;;29.90;1.00;;;;;;5019121;28;20944;-76
2022/08/25 10:02:27;;;;;;;7.67;6.20;;;30.00;1.00;;;;;;5016901;28;20421;-77
2022/08/25 10:05:33;;;;;;;6.90;6.20;;;30.20;1.00;;;;;;5028073;28;20933;-83
2022/08/25 10:08:09;;;;;;;8.87;6.10;;;30.30;1.00;;;;;;5024536;28;20481;-76
2022/08/25 10:10:44;;;;;;;6.63;5.40;;;30.40;1.00;;;;;;5025008;28;20474;-77
2022/08/25 10:13:33;;;;;;;6.33;5.67;;;30.50;1.00;;;;;;5015449;28;21004;-76
2022/08/25 10:16:05;;;;;;;8.40;5.40;;;30.60;1.00;;;;;;5034392;28;20899;-77
2022/08/25 10:18:30;;;;;;;5.93;5.33;;;30.80;1.00;;;;;;5034110;28;20407;-76
2022/08/25 10:21:11;;;;;;;8.60;6.80;;;30.80;1.00;;;;;;5020356;28;20536;-76
2022/08/25 10:23:50;;;;;;;8.07;5.80;;;30.90;1.00;;;;;;5030852;28;20211;-76
2022/08/25 10:26:32;;;;;;;6.07;5.33;;;30.80;1.00;;;;;;5035128;28;20394;-76
2022/08/25 10:29:10;;;;;;;8.07;5.40;;;30.80;1.00;;;;;;5032207;28;20399;-76
2022/08/25 10:32:02;;;;;;;7.40;5.83;;;30.90;1.00;;;;;;5015047;28;20431;-76
2022/08/25 10:34:48;;;;;;;7.00;5.23;;;31.10;1.00;;;;;;5014895;28;20954;-76
2022/08/25 10:37:42;;;;;;;9.33;5.73;;;31.20;1.00;;;;;;5016387;28;20408;-76
2022/08/25 10:40:15;;;;;;;5.80;5.23;;;31.30;1.00;;;;;;5019434;28;20946;-77
2022/08/25 10:42:49;;;;;;;7.63;5.63;;;31.20;1.00;;;;;;5018587;28;20934;-76
2022/08/25 10:45:42;;;;;;;8.03;5.80;;;31.20;1.00;;;;;;5025781;28;20771;-76
2022/08/25 10:48:42;;;;;;;7.30;5.60;;;31.00;1.00;;;;;;5035265;28;20399;-76
2022/08/25 10:51:39;;;;;;;6.27;5.50;;;31.10;1.00;;;;;;5035533;28;20478;-77
2022/08/25 10:54:30;;;;;;;5.90;5.07;;;31.10;1.00;;;;;;5027318;28;20896;-76
2022/08/25 10:57:13;;;;;;;5.50;4.33;;;31.10;1.00;;;;;;5040742;28;20561;-76
2022/08/25 10:59:57;;;;;;;5.10;4.47;;;31.10;1.00;;;;;;5030878;28;20827;-76
2022/08/25 11:02:37;;;;;;;4.87;4.47;;;31.40;1.00;;;;;;5015652;28;20462;-76
2022/08/25 11:05:02;;;;;;;4.77;4.37;;;31.70;1.00;;;;;;5015561;28;20510;-77
2022/08/25 11:07:36;;;;;;;10.57;4.57;;;32.00;1.00;;;;;;5020478;28;20515;-76
2022/08/25 11:10:24;;;;;;;8.50;4.63;;;32.10;1.00;;;;;;5036130;28;20216;-76
2022/08/25 11:12:58;;;;;;;5.27;4.77;;;32.20;1.00;;;;;;5019836;28;20460;-76
2022/08/25 11:15:37;;;;;;;7.80;4.83;;;32.50;1.00;;;;;;5024107;28;20447;-72
2022/08/25 11:18:12;;;;;;;5.57;4.80;;;32.80;1.00;;;;;;5028835;28;21196;-72
2022/08/25 11:20:48;;;;;;;5.47;4.97;;;32.90;1.00;;;;;;5030140;28;20778;-73
2022/08/25 11:23:38;;;;;;;6.27;4.53;;;32.90;1.00;;;;;;5022973;28;20419;-72
2022/08/25 11:26:12;;;;;;;5.80;4.27;;;33.00;1.00;;;;;;5028097;28;20814;-72
2022/08/25 11:29:09;;;;;;;5.97;4.43;;;33.10;1.00;;;;;;5028321;28;20834;-72
2022/08/25 11:31:41;;;;;;;5.27;4.80;;;33.40;1.00;;;;;;5016172;28;20426;-76
2022/08/25 11:34:14;;;;;;;5.30;4.30;;;33.60;1.00;;;;;;5016070;28;20970;-76
2022/08/25 11:36:56;;;;;;;7.47;4.30;;;33.40;1.00;;;;;;5028804;28;20466;-76
2022/08/25 11:39:47;;;;;;;5.70;4.27;;;33.10;1.00;;;;;;5033050;28;20412;-76
2022/08/25 11:42:41;;;;;;;4.87;3.70;;;32.80;1.00;;;;;;5028558;28;20515;-76
2022/08/25 11:45:24;;;;;;;5.00;4.50;;;32.70;1.00;;;;;;5024808;28;20416;-72
2022/08/25 11:47:58;;;;;;;10.80;4.00;;;32.60;1.00;;;;;;5028142;28;20415;-73
2022/08/25 11:50:29;;;;;;;5.97;4.10;;;32.40;1.00;;;;;;5021975;28;20493;-72
2022/08/25 11:53:14;;;;;;;5.03;4.17;;;32.20;1.00;;;;;;5020231;28;20448;-73
2022/08/25 11:55:39;;;;;;;4.80;4.00;;;32.30;1.00;;;;;;5025513;28;20902;-73
2022/08/25 11:58:26;;;;;;;6.13;3.77;;;32.10;1.00;;;;;;5021631;28;20420;-73
2022/08/25 12:00:53;;;;;;;7.20;4.07;;;32.00;1.00;;;;;;5014735;28;20259;-73
2022/08/25 12:03:31;;;;;;;4.37;3.90;;;32.10;1.00;;;;;;5017204;28;20779;-73
2022/08/25 12:06:15;;;;;;;7.93;4.20;;;32.30;1.00;;;;;;5031586;28;20426;-72
2022/08/25 12:08:59;;;;;;;4.30;3.93;;;32.40;1.00;;;;;;5014389;28;20919;-72
2022/08/25 12:11:37;;;;;;;10.10;4.07;;;32.50;1.00;;;;;;5025293;28;20407;-73
2022/08/25 12:14:20;;;;;;;4.80;4.17;;;32.30;1.00;;;;;;5014029;28;20412;-73
2022/08/25 12:16:55;;;;;;;5.10;4.60;;;32.20;1.00;;;;;;5023494;28;20466;-72
2022/08/25 12:19:29;;;;;;;4.50;4.10;;;32.00;1.00;;;;;;5024495;28;20421;-72
2022/08/25 12:22:15;;;;;;;4.30;3.90;;;32.00;1.00;;;;;;5013851;28;20408;-73
2022/08/25 12:24:43;;;;;;;5.33;4.40;;;32.10;1.00;;;;;;5030768;28;20949;-72
2022/08/25 12:27:20;;;;;;;6.73;4.17;;;32.30;1.00;;;;;;5024315;28;20536;-72
2022/08/25 12:29:59;;;;;;;4.67;4.27;;;32.40;1.00;;;;;;5030558;28;20946;-74
2022/08/25 12:32:44;;;;;;;4.37;3.97;;;32.70;1.00;;;;;;5028432;28;20498;-72
2022/08/25 12:35:20;;;;;;;8.00;4.27;;;32.80;1.00;;;;;;5028517;28;20942;-72
2022/08/25 12:38:06;;;;;;;10.63;4.13;;;32.80;1.00;;;;;;5024835;28;20465;-73
2022/08/25 12:40:57;;;;;;;9.63;4.10;;;32.70;1.00;;;;;;5031000;28;20505;-72
2022/08/25 12:43:29;;;;;;;4.83;4.43;;;32.90;1.00;;;;;;5031124;28;20481;-72
2022/08/25 12:46:27;;;;;;;9.30;3.90;;;33.00;1.00;;;;;;5031453;28;20882;-73
2022/08/25 12:48:56;;;;;;;7.03;4.33;;;33.10;1.00;;;;;;4948061;29;20446;-72
2022/08/25 12:51:49;;;;;;;6.13;4.50;;;33.20;1.00;;;;;;4947108;29;20473;-73
2022/08/25 12:54:56;;;;;;;5.40;3.90;;;33.50;1.00;;;;;;4932650;29;20984;-72
2022/08/25 12:57:31;;;;;;;4.40;3.53;;;33.60;1.00;;;;;;4970590;28;20434;-72
2022/08/25 13:00:14;;;;;;;17.50;4.03;;;33.90;1.00;;;;;;4972817;28;20417;-73
2022/08/25 13:03:16;;;;;;;9.33;4.20;;;34.00;1.00;;;;;;4922702;28;20433;-73
2022/08/25 13:06:00;;;;;;;4.00;3.70;;;34.10;1.00;;;;;;4915387;29;20514;-73
2022/08/25 13:08:57;;;;;;;3.70;3.40;;;34.50;1.00;;;;;;4915367;29;20435;-72
2022/08/25 13:11:33;;;;;;;4.33;3.90;;;34.80;1.00;;;;;;4916945;29;20503;-72
2022/08/25 13:14:19;;;;;;;4.27;3.97;;;34.90;1.00;;;;;;4917911;29;20458;-73
2022/08/25 13:16:57;;;;;;;4.63;3.57;;;35.00;1.00;;;;;;4914189;29;20443;-76
2022/08/25 13:19:32;;;;;;;4.17;3.77;;;35.00;1.00;;;;;;4915049;29;20420;-77
2022/08/25 13:22:13;;;;;;;4.20;3.70;;;34.70;1.00;;;;;;4914846;29;20420;-76
2022/08/25 13:24:42;;;;;;;4.00;3.47;;;34.60;1.00;;;;;;4921317;28;20420;-76
2022/08/25 13:27:18;;;;;;;3.97;3.67;;;34.40;1.00;;;;;;4984763;28;20451;-76
2022/08/25 13:29:53;;;;;;;5.13;3.57;;;34.20;1.00;;;;;;4972904;28;20444;-76
2022/08/25 13:32:32;;;;;;;4.43;4.03;;;34.10;1.00;;;;;;4982620;28;20482;-76
2022/08/25 13:35:14;;;;;;;4.23;3.87;;;34.00;1.00;;;;;;5025854;28;20902;-76
2022/08/25 13:37:40;;;;;;;4.77;4.30;;;33.80;1.00;;;;;;5021534;28;20898;-76
2022/08/25 13:40:06;;;;;;;3.90;3.60;;;33.70;1.00;;;;;;5032458;28;20928;-76
2022/08/25 13:42:32;;;;;;;10.00;3.90;;;33.60;1.00;;;;;;5032611;28;20441;-76
2022/08/25 13:44:58;;;;;;;5.93;3.80;;;33.70;1.00;;;;;;5018039;28;20260;-76
2022/08/25 13:47:34;;;;;;;3.60;3.30;;;33.60;1.00;;;;;;5013325;28;20188;-72
2022/08/25 13:50:30;;;;;;;4.03;3.73;;;33.60;1.00;;;;;;5012925;28;20177;-72